sensor_id;sensor_type;location;lat;lon;timestamp;P1;durP1;ratioP1;P2;durP2;ratioP2
75655;SDS011;64252;51.094;13.714;2023-12-29T00:01:20;4.10;;;1.40;;
75655;SDS011;64252;51.094;13.714;2023-12-29T00:03:45;2.95;;;0.98;;
75655;SDS011;64252;51.094;13.714;2023-12-29T00:06:11;4.32;;;1.27;;
75655;SDS011;64252;51.094;13.714;2023-12-29T00:08:36;1.80;;;0.77;;
75655;SDS011;64252;51.094;13.714;2023-12-29T00:11:02;3.40;;;1.10;;
75655;SDS011;64252;51.094;13.714;2023-12-29T00:13:27;3.13;;;0.95;;
75655;SDS011;64252;51.094;13.714;2023-12-29T00:15:53;3.13;;;1.20;;
75655;SDS011;64252;51.094;13.714;2023-12-29T00:18:20;3.63;;;1.15;;
75655;SDS011;64252;51.094;13.714;2023-12-29T00:20:46;2.92;;;1.00;;
75655;SDS011;64252;51.094;13.714;2023-12-29T00:23:11;2.85;;;1.10;;
75655;SDS011;64252;51.094;13.714;2023-12-29T00:25:37;3.63;;;1.50;;
75655;SDS011;64252;51.094;13.714;2023-12-29T00:28:03;5.00;;;1.40;;
75655;SDS011;64252;51.094;13.714;2023-12-29T00:30:32;3.00;;;1.30;;
75655;SDS011;64252;51.094;13.714;2023-12-29T00:32:57;4.68;;;1.38;;
75655;SDS011;64252;51.094;13.714;2023-12-29T00:35:23;3.17;;;1.20;;
75655;SDS011;64252;51.094;13.714;2023-12-29T00:37:49;4.47;;;1.75;;
75655;SDS011;64252;51.094;13.714;2023-12-29T00:40:16;3.63;;;1.38;;
75655;SDS011;64252;51.094;13.714;2023-12-29T00:42:41;3.55;;;1.45;;
75655;SDS011;64252;51.094;13.714;2023-12-29T00:45:07;6.00;;;1.65;;
75655;SDS011;64252;51.094;13.714;2023-12-29T00:47:33;6.38;;;2.30;;
75655;SDS011;64252;51.094;13.714;2023-12-29T00:49:59;5.43;;;2.38;;
75655;SDS011;64252;51.094;13.714;2023-12-29T00:52:25;5.47;;;2.35;;
75655;SDS011;64252;51.094;13.714;2023-12-29T00:54:50;5.03;;;2.28;;
75655;SDS011;64252;51.094;13.714;2023-12-29T00:57:16;5.65;;;1.90;;
75655;SDS011;64252;51.094;13.714;2023-12-29T00:59:41;4.65;;;1.88;;
75655;SDS011;64252;51.094;13.714;2023-12-29T01:02:09;4.43;;;1.88;;
75655;SDS011;64252;51.094;13.714;2023-12-29T01:04:37;4.65;;;1.52;;
75655;SDS011;64252;51.094;13.714;2023-12-29T01:07:03;4.95;;;1.63;;
75655;SDS011;64252;51.094;13.714;2023-12-29T01:09:30;4.90;;;1.50;;
75655;SDS011;64252;51.094;13.714;2023-12-29T01:11:56;4.30;;;1.55;;
75655;SDS011;64252;51.094;13.714;2023-12-29T01:14:22;3.55;;;1.30;;
75655;SDS011;64252;51.094;13.714;2023-12-29T01:16:47;2.80;;;1.05;;
75655;SDS011;64252;51.094;13.714;2023-12-29T01:19:13;3.17;;;1.33;;
75655;SDS011;64252;51.094;13.714;2023-12-29T01:21:38;4.15;;;1.52;;
75655;SDS011;64252;51.094;13.714;2023-12-29T01:24:04;3.38;;;1.33;;
75655;SDS011;64252;51.094;13.714;2023-12-29T01:26:35;3.63;;;1.08;;
75655;SDS011;64252;51.094;13.714;2023-12-29T01:29:02;7.95;;;1.33;;
75655;SDS011;64252;51.094;13.714;2023-12-29T01:31:30;4.63;;;1.27;;
75655;SDS011;64252;51.094;13.714;2023-12-29T01:33:56;3.15;;;1.30;;
75655;SDS011;64252;51.094;13.714;2023-12-29T01:36:22;3.55;;;1.00;;
75655;SDS011;64252;51.094;13.714;2023-12-29T01:38:48;3.20;;;1.30;;
75655;SDS011;64252;51.094;13.714;2023-12-29T01:41:14;4.03;;;0.98;;
75655;SDS011;64252;51.094;13.714;2023-12-29T01:46:31;2.90;;;1.10;;
75655;SDS011;64252;51.094;13.714;2023-12-29T01:48:58;2.85;;;0.80;;
75655;SDS011;64252;51.094;13.714;2023-12-29T01:51:25;2.58;;;0.98;;
75655;SDS011;64252;51.094;13.714;2023-12-29T01:53:55;2.30;;;0.70;;
75655;SDS011;64252;51.094;13.714;2023-12-29T01:56:22;1.67;;;0.60;;
75655;SDS011;64252;51.094;13.714;2023-12-29T01:58:49;3.38;;;0.70;;
75655;SDS011;64252;51.094;13.714;2023-12-29T02:01:15;2.55;;;0.80;;
75655;SDS011;64252;51.094;13.714;2023-12-29T02:03:43;2.28;;;0.80;;
75655;SDS011;64252;51.094;13.714;2023-12-29T02:06:10;2.90;;;0.68;;
75655;SDS011;64252;51.094;13.714;2023-12-29T02:08:36;3.13;;;0.70;;
75655;SDS011;64252;51.094;13.714;2023-12-29T02:11:03;2.45;;;0.70;;
75655;SDS011;64252;51.094;13.714;2023-12-29T02:13:29;2.85;;;0.65;;
75655;SDS011;64252;51.094;13.714;2023-12-29T02:15:55;2.25;;;0.47;;
75655;SDS011;64252;51.094;13.714;2023-12-29T02:18:25;1.70;;;0.50;;
75655;SDS011;64252;51.094;13.714;2023-12-29T02:20:54;2.45;;;0.60;;
75655;SDS011;64252;51.094;13.714;2023-12-29T02:23:20;1.38;;;0.50;;
75655;SDS011;64252;51.094;13.714;2023-12-29T02:25:45;2.25;;;0.60;;
75655;SDS011;64252;51.094;13.714;2023-12-29T02:28:14;1.15;;;0.40;;
75655;SDS011;64252;51.094;13.714;2023-12-29T02:33:38;1.85;;;0.55;;
75655;SDS011;64252;51.094;13.714;2023-12-29T02:36:05;1.70;;;0.57;;
75655;SDS011;64252;51.094;13.714;2023-12-29T02:38:31;1.77;;;0.40;;
75655;SDS011;64252;51.094;13.714;2023-12-29T02:40:59;2.42;;;0.50;;
75655;SDS011;64252;51.094;13.714;2023-12-29T02:43:24;2.42;;;0.60;;
75655;SDS011;64252;51.094;13.714;2023-12-29T02:45:50;3.42;;;0.85;;
75655;SDS011;64252;51.094;13.714;2023-12-29T02:48:16;1.63;;;0.60;;
75655;SDS011;64252;51.094;13.714;2023-12-29T02:50:41;1.73;;;0.50;;
75655;SDS011;64252;51.094;13.714;2023-12-29T02:53:07;2.03;;;0.60;;
75655;SDS011;64252;51.094;13.714;2023-12-29T02:55:33;1.08;;;0.40;;
75655;SDS011;64252;51.094;13.714;2023-12-29T02:57:59;0.98;;;0.30;;
75655;SDS011;64252;51.094;13.714;2023-12-29T03:00:25;0.77;;;0.30;;
75655;SDS011;64252;51.094;13.714;2023-12-29T03:02:50;1.75;;;0.50;;
75655;SDS011;64252;51.094;13.714;2023-12-29T03:05:16;1.40;;;0.40;;
75655;SDS011;64252;51.094;13.714;2023-12-29T03:07:41;2.00;;;0.50;;
75655;SDS011;64252;51.094;13.714;2023-12-29T03:10:07;1.05;;;0.40;;
75655;SDS011;64252;51.094;13.714;2023-12-29T03:12:33;0.73;;;0.30;;
75655;SDS011;64252;51.094;13.714;2023-12-29T03:14:59;1.13;;;0.45;;
75655;SDS011;64252;51.094;13.714;2023-12-29T03:17:25;1.80;;;0.40;;
75655;SDS011;64252;51.094;13.714;2023-12-29T03:19:52;0.98;;;0.30;;
75655;SDS011;64252;51.094;13.714;2023-12-29T03:22:18;1.35;;;0.50;;
75655;SDS011;64252;51.094;13.714;2023-12-29T03:24:44;1.17;;;0.40;;
75655;SDS011;64252;51.094;13.714;2023-12-29T03:27:09;1.95;;;0.50;;
75655;SDS011;64252;51.094;13.714;2023-12-29T03:29:35;1.55;;;0.40;;
75655;SDS011;64252;51.094;13.714;2023-12-29T03:32:01;1.10;;;0.30;;
75655;SDS011;64252;51.094;13.714;2023-12-29T03:34:27;1.60;;;0.65;;
75655;SDS011;64252;51.094;13.714;2023-12-29T03:36:53;1.55;;;0.60;;
75655;SDS011;64252;51.094;13.714;2023-12-29T03:39:18;1.80;;;0.70;;
75655;SDS011;64252;51.094;13.714;2023-12-29T03:41:44;1.73;;;0.60;;
75655;SDS011;64252;51.094;13.714;2023-12-29T03:44:10;2.33;;;0.80;;
75655;SDS011;64252;51.094;13.714;2023-12-29T03:46:35;1.25;;;0.45;;
75655;SDS011;64252;51.094;13.714;2023-12-29T03:49:01;2.58;;;0.55;;
75655;SDS011;64252;51.094;13.714;2023-12-29T03:51:27;2.35;;;0.60;;
75655;SDS011;64252;51.094;13.714;2023-12-29T03:53:52;2.30;;;0.60;;
75655;SDS011;64252;51.094;13.714;2023-12-29T03:56:18;1.80;;;0.55;;
75655;SDS011;64252;51.094;13.714;2023-12-29T03:58:47;1.85;;;0.50;;
75655;SDS011;64252;51.094;13.714;2023-12-29T04:01:14;1.88;;;0.50;;
75655;SDS011;64252;51.094;13.714;2023-12-29T04:03:41;2.47;;;0.80;;
75655;SDS011;64252;51.094;13.714;2023-12-29T04:06:07;1.70;;;0.70;;
75655;SDS011;64252;51.094;13.714;2023-12-29T04:08:33;2.05;;;0.73;;
75655;SDS011;64252;51.094;13.714;2023-12-29T04:10:59;2.70;;;0.98;;
75655;SDS011;64252;51.094;13.714;2023-12-29T04:13:26;2.22;;;0.60;;
75655;SDS011;64252;51.094;13.714;2023-12-29T04:15:52;2.20;;;0.88;;
75655;SDS011;64252;51.094;13.714;2023-12-29T04:18:21;1.95;;;0.70;;
75655;SDS011;64252;51.094;13.714;2023-12-29T04:20:48;2.28;;;0.63;;
75655;SDS011;64252;51.094;13.714;2023-12-29T04:23:13;2.03;;;0.60;;
75655;SDS011;64252;51.094;13.714;2023-12-29T04:25:39;2.00;;;0.60;;
75655;SDS011;64252;51.094;13.714;2023-12-29T04:28:05;1.70;;;0.60;;
75655;SDS011;64252;51.094;13.714;2023-12-29T04:30:32;2.60;;;0.60;;
75655;SDS011;64252;51.094;13.714;2023-12-29T04:32:57;1.88;;;0.60;;
75655;SDS011;64252;51.094;13.714;2023-12-29T04:35:23;1.67;;;0.60;;
75655;SDS011;64252;51.094;13.714;2023-12-29T04:37:48;1.83;;;0.60;;
75655;SDS011;64252;51.094;13.714;2023-12-29T04:40:14;1.60;;;0.60;;
75655;SDS011;64252;51.094;13.714;2023-12-29T04:42:40;2.63;;;0.77;;
75655;SDS011;64252;51.094;13.714;2023-12-29T04:45:06;2.17;;;0.63;;
75655;SDS011;64252;51.094;13.714;2023-12-29T04:47:32;2.05;;;0.60;;
75655;SDS011;64252;51.094;13.714;2023-12-29T04:49:57;1.92;;;0.70;;
75655;SDS011;64252;51.094;13.714;2023-12-29T04:52:23;1.30;;;0.40;;
75655;SDS011;64252;51.094;13.714;2023-12-29T04:54:48;2.45;;;0.82;;
75655;SDS011;64252;51.094;13.714;2023-12-29T04:57:14;2.20;;;0.80;;
75655;SDS011;64252;51.094;13.714;2023-12-29T04:59:40;2.10;;;0.70;;
75655;SDS011;64252;51.094;13.714;2023-12-29T05:02:05;2.67;;;0.85;;
75655;SDS011;64252;51.094;13.714;2023-12-29T05:04:31;2.53;;;1.05;;
75655;SDS011;64252;51.094;13.714;2023-12-29T05:06:57;2.70;;;0.90;;
75655;SDS011;64252;51.094;13.714;2023-12-29T05:09:22;2.13;;;0.75;;
75655;SDS011;64252;51.094;13.714;2023-12-29T05:11:48;3.35;;;0.70;;
75655;SDS011;64252;51.094;13.714;2023-12-29T05:14:13;3.20;;;0.95;;
75655;SDS011;64252;51.094;13.714;2023-12-29T05:16:39;1.98;;;0.70;;
75655;SDS011;64252;51.094;13.714;2023-12-29T05:19:06;3.08;;;0.80;;
75655;SDS011;64252;51.094;13.714;2023-12-29T05:21:31;2.78;;;0.73;;
75655;SDS011;64252;51.094;13.714;2023-12-29T05:23:57;2.85;;;0.80;;
75655;SDS011;64252;51.094;13.714;2023-12-29T05:26:22;2.85;;;0.80;;
75655;SDS011;64252;51.094;13.714;2023-12-29T05:28:48;2.40;;;0.45;;
75655;SDS011;64252;51.094;13.714;2023-12-29T05:31:13;2.03;;;0.77;;
75655;SDS011;64252;51.094;13.714;2023-12-29T05:33:39;2.33;;;0.90;;
75655;SDS011;64252;51.094;13.714;2023-12-29T05:36:05;2.15;;;0.90;;
75655;SDS011;64252;51.094;13.714;2023-12-29T05:38:36;2.40;;;0.70;;
75655;SDS011;64252;51.094;13.714;2023-12-29T05:41:02;2.05;;;0.70;;
75655;SDS011;64252;51.094;13.714;2023-12-29T05:43:33;2.33;;;0.82;;
75655;SDS011;64252;51.094;13.714;2023-12-29T05:46:00;2.28;;;0.82;;
75655;SDS011;64252;51.094;13.714;2023-12-29T05:48:26;2.80;;;0.82;;
75655;SDS011;64252;51.094;13.714;2023-12-29T05:50:52;1.85;;;0.65;;
75655;SDS011;64252;51.094;13.714;2023-12-29T05:53:18;2.90;;;0.68;;
75655;SDS011;64252;51.094;13.714;2023-12-29T05:55:44;2.33;;;0.70;;
75655;SDS011;64252;51.094;13.714;2023-12-29T05:58:11;1.83;;;0.70;;
75655;SDS011;64252;51.094;13.714;2023-12-29T06:00:36;2.60;;;0.60;;
75655;SDS011;64252;51.094;13.714;2023-12-29T06:03:02;2.97;;;1.00;;
75655;SDS011;64252;51.094;13.714;2023-12-29T06:05:31;2.08;;;0.70;;
75655;SDS011;64252;51.094;13.714;2023-12-29T06:07:58;3.40;;;0.90;;
75655;SDS011;64252;51.094;13.714;2023-12-29T06:10:24;4.07;;;0.98;;
75655;SDS011;64252;51.094;13.714;2023-12-29T06:12:49;2.50;;;1.02;;
75655;SDS011;64252;51.094;13.714;2023-12-29T06:15:15;3.10;;;1.02;;
75655;SDS011;64252;51.094;13.714;2023-12-29T06:17:41;2.20;;;0.80;;
75655;SDS011;64252;51.094;13.714;2023-12-29T06:20:07;2.78;;;0.90;;
75655;SDS011;64252;51.094;13.714;2023-12-29T06:22:38;2.22;;;0.93;;
75655;SDS011;64252;51.094;13.714;2023-12-29T06:25:05;3.53;;;1.00;;
75655;SDS011;64252;51.094;13.714;2023-12-29T06:27:34;2.15;;;0.82;;
75655;SDS011;64252;51.094;13.714;2023-12-29T06:30:03;1.95;;;0.80;;
75655;SDS011;64252;51.094;13.714;2023-12-29T06:32:37;3.45;;;0.80;;
75655;SDS011;64252;51.094;13.714;2023-12-29T06:35:03;3.35;;;0.98;;
75655;SDS011;64252;51.094;13.714;2023-12-29T06:37:29;2.25;;;0.77;;
75655;SDS011;64252;51.094;13.714;2023-12-29T06:39:56;2.08;;;0.70;;
75655;SDS011;64252;51.094;13.714;2023-12-29T06:42:21;3.13;;;1.00;;
75655;SDS011;64252;51.094;13.714;2023-12-29T06:44:48;2.75;;;1.00;;
75655;SDS011;64252;51.094;13.714;2023-12-29T06:47:13;2.90;;;0.85;;
75655;SDS011;64252;51.094;13.714;2023-12-29T06:49:39;3.10;;;1.10;;
75655;SDS011;64252;51.094;13.714;2023-12-29T06:52:06;2.63;;;1.00;;
75655;SDS011;64252;51.094;13.714;2023-12-29T06:54:31;2.83;;;0.90;;
75655;SDS011;64252;51.094;13.714;2023-12-29T06:56:57;3.15;;;1.00;;
75655;SDS011;64252;51.094;13.714;2023-12-29T06:59:22;2.13;;;0.65;;
75655;SDS011;64252;51.094;13.714;2023-12-29T07:01:48;4.38;;;1.00;;
75655;SDS011;64252;51.094;13.714;2023-12-29T07:04:14;2.78;;;0.88;;
75655;SDS011;64252;51.094;13.714;2023-12-29T07:06:40;2.28;;;0.80;;
75655;SDS011;64252;51.094;13.714;2023-12-29T07:09:07;2.97;;;1.10;;
75655;SDS011;64252;51.094;13.714;2023-12-29T07:11:34;4.10;;;1.35;;
75655;SDS011;64252;51.094;13.714;2023-12-29T07:14:00;2.58;;;1.00;;
75655;SDS011;64252;51.094;13.714;2023-12-29T07:16:26;2.50;;;0.90;;
75655;SDS011;64252;51.094;13.714;2023-12-29T07:18:52;3.50;;;1.05;;
75655;SDS011;64252;51.094;13.714;2023-12-29T07:21:17;4.75;;;0.90;;
75655;SDS011;64252;51.094;13.714;2023-12-29T07:23:43;2.80;;;0.80;;
75655;SDS011;64252;51.094;13.714;2023-12-29T07:26:09;3.03;;;0.90;;
75655;SDS011;64252;51.094;13.714;2023-12-29T07:28:35;2.20;;;0.80;;
75655;SDS011;64252;51.094;13.714;2023-12-29T07:31:00;3.63;;;1.00;;
75655;SDS011;64252;51.094;13.714;2023-12-29T07:33:27;5.07;;;1.10;;
75655;SDS011;64252;51.094;13.714;2023-12-29T07:35:55;2.78;;;1.00;;
75655;SDS011;64252;51.094;13.714;2023-12-29T07:38:20;3.13;;;1.00;;
75655;SDS011;64252;51.094;13.714;2023-12-29T07:40:46;5.20;;;2.38;;
75655;SDS011;64252;51.094;13.714;2023-12-29T07:43:13;4.63;;;2.00;;
75655;SDS011;64252;51.094;13.714;2023-12-29T07:45:41;4.18;;;1.13;;
75655;SDS011;64252;51.094;13.714;2023-12-29T07:48:08;2.45;;;0.90;;
75655;SDS011;64252;51.094;13.714;2023-12-29T07:50:34;2.55;;;1.25;;
75655;SDS011;64252;51.094;13.714;2023-12-29T07:53:00;2.92;;;1.45;;
75655;SDS011;64252;51.094;13.714;2023-12-29T07:55:28;2.50;;;0.98;;
75655;SDS011;64252;51.094;13.714;2023-12-29T07:57:57;4.05;;;1.02;;
75655;SDS011;64252;51.094;13.714;2023-12-29T08:00:23;2.60;;;0.93;;
75655;SDS011;64252;51.094;13.714;2023-12-29T08:02:49;2.45;;;1.00;;
75655;SDS011;64252;51.094;13.714;2023-12-29T08:05:15;2.97;;;1.20;;
75655;SDS011;64252;51.094;13.714;2023-12-29T08:07:43;2.40;;;0.80;;
75655;SDS011;64252;51.094;13.714;2023-12-29T08:10:08;2.95;;;1.10;;
75655;SDS011;64252;51.094;13.714;2023-12-29T08:12:34;6.53;;;1.33;;
75655;SDS011;64252;51.094;13.714;2023-12-29T08:15:03;2.40;;;1.00;;
75655;SDS011;64252;51.094;13.714;2023-12-29T08:17:31;2.10;;;0.82;;
75655;SDS011;64252;51.094;13.714;2023-12-29T08:19:56;2.22;;;1.00;;
75655;SDS011;64252;51.094;13.714;2023-12-29T08:22:22;2.78;;;1.02;;
75655;SDS011;64252;51.094;13.714;2023-12-29T08:24:47;2.55;;;1.00;;
75655;SDS011;64252;51.094;13.714;2023-12-29T08:27:13;2.72;;;1.10;;
75655;SDS011;64252;51.094;13.714;2023-12-29T08:29:39;4.20;;;1.10;;
75655;SDS011;64252;51.094;13.714;2023-12-29T08:32:05;6.18;;;0.95;;
75655;SDS011;64252;51.094;13.714;2023-12-29T08:34:32;3.83;;;1.00;;
75655;SDS011;64252;51.094;13.714;2023-12-29T08:36:59;3.70;;;1.10;;
75655;SDS011;64252;51.094;13.714;2023-12-29T08:39:24;3.60;;;1.00;;
75655;SDS011;64252;51.094;13.714;2023-12-29T08:41:50;3.70;;;0.98;;
75655;SDS011;64252;51.094;13.714;2023-12-29T08:44:16;2.60;;;1.05;;
75655;SDS011;64252;51.094;13.714;2023-12-29T08:46:41;2.53;;;1.00;;
75655;SDS011;64252;51.094;13.714;2023-12-29T08:49:07;2.95;;;1.00;;
75655;SDS011;64252;51.094;13.714;2023-12-29T08:51:33;5.05;;;1.13;;
75655;SDS011;64252;51.094;13.714;2023-12-29T08:53:58;3.17;;;1.27;;
75655;SDS011;64252;51.094;13.714;2023-12-29T08:56:24;4.70;;;1.48;;
75655;SDS011;64252;51.094;13.714;2023-12-29T08:58:50;2.42;;;1.08;;
75655;SDS011;64252;51.094;13.714;2023-12-29T09:01:15;3.38;;;1.00;;
75655;SDS011;64252;51.094;13.714;2023-12-29T09:03:41;4.10;;;1.08;;
75655;SDS011;64252;51.094;13.714;2023-12-29T09:06:07;2.90;;;1.20;;
75655;SDS011;64252;51.094;13.714;2023-12-29T09:08:35;4.68;;;1.20;;
75655;SDS011;64252;51.094;13.714;2023-12-29T09:11:01;3.20;;;1.30;;
75655;SDS011;64252;51.094;13.714;2023-12-29T09:13:29;3.63;;;1.67;;
75655;SDS011;64252;51.094;13.714;2023-12-29T09:15:56;6.95;;;1.05;;
75655;SDS011;64252;51.094;13.714;2023-12-29T09:18:22;4.10;;;1.50;;
75655;SDS011;64252;51.094;13.714;2023-12-29T09:20:48;3.45;;;1.10;;
75655;SDS011;64252;51.094;13.714;2023-12-29T09:23:13;8.63;;;1.50;;
75655;SDS011;64252;51.094;13.714;2023-12-29T09:25:39;3.40;;;1.23;;
75655;SDS011;64252;51.094;13.714;2023-12-29T09:28:06;3.67;;;1.08;;
75655;SDS011;64252;51.094;13.714;2023-12-29T09:30:32;5.53;;;1.10;;
75655;SDS011;64252;51.094;13.714;2023-12-29T09:32:57;3.30;;;0.90;;
75655;SDS011;64252;51.094;13.714;2023-12-29T09:35:23;3.28;;;0.90;;
75655;SDS011;64252;51.094;13.714;2023-12-29T09:37:49;3.25;;;1.10;;
75655;SDS011;64252;51.094;13.714;2023-12-29T09:40:15;3.30;;;1.00;;
75655;SDS011;64252;51.094;13.714;2023-12-29T09:42:44;3.55;;;1.20;;
75655;SDS011;64252;51.094;13.714;2023-12-29T09:45:11;4.90;;;1.63;;
75655;SDS011;64252;51.094;13.714;2023-12-29T09:47:41;4.78;;;1.33;;
75655;SDS011;64252;51.094;13.714;2023-12-29T09:50:09;8.70;;;3.25;;
75655;SDS011;64252;51.094;13.714;2023-12-29T09:52:41;4.95;;;2.35;;
75655;SDS011;64252;51.094;13.714;2023-12-29T09:55:09;6.03;;;2.53;;
75655;SDS011;64252;51.094;13.714;2023-12-29T09:57:38;5.07;;;2.38;;
75655;SDS011;64252;51.094;13.714;2023-12-29T10:00:05;5.18;;;2.72;;
75655;SDS011;64252;51.094;13.714;2023-12-29T10:02:38;4.32;;;1.63;;
75655;SDS011;64252;51.094;13.714;2023-12-29T10:05:04;5.97;;;2.85;;
75655;SDS011;64252;51.094;13.714;2023-12-29T10:07:37;5.03;;;2.17;;
75655;SDS011;64252;51.094;13.714;2023-12-29T10:10:05;4.78;;;2.25;;
75655;SDS011;64252;51.094;13.714;2023-12-29T10:12:35;5.40;;;2.42;;
75655;SDS011;64252;51.094;13.714;2023-12-29T10:15:05;5.68;;;2.58;;
75655;SDS011;64252;51.094;13.714;2023-12-29T10:20:44;8.18;;;3.33;;
75655;SDS011;64252;51.094;13.714;2023-12-29T10:26:05;7.88;;;3.15;;
75655;SDS011;64252;51.094;13.714;2023-12-29T10:28:34;6.45;;;3.35;;
75655;SDS011;64252;51.094;13.714;2023-12-29T10:31:01;6.07;;;3.13;;
75655;SDS011;64252;51.094;13.714;2023-12-29T10:33:26;4.85;;;2.63;;
75655;SDS011;64252;51.094;13.714;2023-12-29T10:36:01;3.95;;;1.50;;
75655;SDS011;64252;51.094;13.714;2023-12-29T10:38:31;5.03;;;1.48;;
75655;SDS011;64252;51.094;13.714;2023-12-29T10:43:42;3.47;;;1.38;;
75655;SDS011;64252;51.094;13.714;2023-12-29T10:46:09;3.88;;;1.30;;
75655;SDS011;64252;51.094;13.714;2023-12-29T10:48:36;5.90;;;2.10;;
75655;SDS011;64252;51.094;13.714;2023-12-29T10:51:02;4.35;;;1.38;;
75655;SDS011;64252;51.094;13.714;2023-12-29T10:55:58;2.92;;;0.95;;
75655;SDS011;64252;51.094;13.714;2023-12-29T10:58:25;4.28;;;1.50;;
75655;SDS011;64252;51.094;13.714;2023-12-29T11:00:58;4.20;;;1.60;;
75655;SDS011;64252;51.094;13.714;2023-12-29T11:03:27;3.03;;;1.08;;
75655;SDS011;64252;51.094;13.714;2023-12-29T11:05:59;3.78;;;1.50;;
75655;SDS011;64252;51.094;13.714;2023-12-29T11:08:27;3.40;;;1.20;;
75655;SDS011;64252;51.094;13.714;2023-12-29T11:10:53;2.65;;;0.93;;
75655;SDS011;64252;51.094;13.714;2023-12-29T11:13:20;5.07;;;1.63;;
75655;SDS011;64252;51.094;13.714;2023-12-29T11:15:45;5.70;;;2.00;;
75655;SDS011;64252;51.094;13.714;2023-12-29T11:18:12;8.38;;;2.60;;
75655;SDS011;64252;51.094;13.714;2023-12-29T11:20:39;4.25;;;1.70;;
75655;SDS011;64252;51.094;13.714;2023-12-29T11:23:06;4.63;;;2.05;;
75655;SDS011;64252;51.094;13.714;2023-12-29T11:25:33;5.07;;;1.95;;
75655;SDS011;64252;51.094;13.714;2023-12-29T11:27:59;6.10;;;3.10;;
75655;SDS011;64252;51.094;13.714;2023-12-29T11:30:26;3.42;;;1.40;;
75655;SDS011;64252;51.094;13.714;2023-12-29T11:32:57;5.25;;;1.83;;
75655;SDS011;64252;51.094;13.714;2023-12-29T11:35:27;4.32;;;1.30;;
75655;SDS011;64252;51.094;13.714;2023-12-29T11:38:03;3.95;;;1.45;;
75655;SDS011;64252;51.094;13.714;2023-12-29T11:40:48;7.15;;;1.50;;
75655;SDS011;64252;51.094;13.714;2023-12-29T11:43:22;2.75;;;1.13;;
75655;SDS011;64252;51.094;13.714;2023-12-29T11:45:47;5.93;;;1.30;;
75655;SDS011;64252;51.094;13.714;2023-12-29T11:48:13;5.00;;;1.60;;
75655;SDS011;64252;51.094;13.714;2023-12-29T11:54:03;4.82;;;1.48;;
75655;SDS011;64252;51.094;13.714;2023-12-29T11:56:30;4.22;;;1.20;;
75655;SDS011;64252;51.094;13.714;2023-12-29T12:01:41;7.57;;;2.20;;
75655;SDS011;64252;51.094;13.714;2023-12-29T12:04:33;2.85;;;1.02;;
75655;SDS011;64252;51.094;13.714;2023-12-29T12:07:17;9.82;;;3.30;;
75655;SDS011;64252;51.094;13.714;2023-12-29T12:12:48;3.65;;;1.27;;
75655;SDS011;64252;51.094;13.714;2023-12-29T12:17:57;6.05;;;1.92;;
75655;SDS011;64252;51.094;13.714;2023-12-29T12:20:23;3.47;;;1.20;;
75655;SDS011;64252;51.094;13.714;2023-12-29T12:22:50;4.95;;;1.58;;
75655;SDS011;64252;51.094;13.714;2023-12-29T12:25:24;7.95;;;2.10;;
75655;SDS011;64252;51.094;13.714;2023-12-29T12:27:53;5.22;;;1.92;;
75655;SDS011;64252;51.094;13.714;2023-12-29T12:30:19;6.05;;;2.47;;
75655;SDS011;64252;51.094;13.714;2023-12-29T12:32:45;3.38;;;1.30;;
75655;SDS011;64252;51.094;13.714;2023-12-29T12:35:14;5.57;;;2.10;;
75655;SDS011;64252;51.094;13.714;2023-12-29T12:37:41;4.38;;;1.20;;
75655;SDS011;64252;51.094;13.714;2023-12-29T12:40:07;9.05;;;2.13;;
75655;SDS011;64252;51.094;13.714;2023-12-29T12:42:34;5.15;;;1.35;;
75655;SDS011;64252;51.094;13.714;2023-12-29T12:45:13;6.07;;;1.90;;
75655;SDS011;64252;51.094;13.714;2023-12-29T12:47:50;6.78;;;1.63;;
75655;SDS011;64252;51.094;13.714;2023-12-29T12:50:17;5.45;;;1.80;;
75655;SDS011;64252;51.094;13.714;2023-12-29T12:52:44;6.95;;;2.35;;
75655;SDS011;64252;51.094;13.714;2023-12-29T12:55:10;5.43;;;1.83;;
75655;SDS011;64252;51.094;13.714;2023-12-29T12:57:39;3.65;;;1.10;;
75655;SDS011;64252;51.094;13.714;2023-12-29T13:00:04;4.72;;;1.70;;
75655;SDS011;64252;51.094;13.714;2023-12-29T13:02:31;5.75;;;1.83;;
75655;SDS011;64252;51.094;13.714;2023-12-29T13:04:58;5.38;;;1.48;;
75655;SDS011;64252;51.094;13.714;2023-12-29T13:07:25;6.00;;;1.65;;
75655;SDS011;64252;51.094;13.714;2023-12-29T13:09:51;6.80;;;1.83;;
75655;SDS011;64252;51.094;13.714;2023-12-29T13:12:18;9.63;;;1.80;;
75655;SDS011;64252;51.094;13.714;2023-12-29T13:14:44;6.20;;;1.80;;
75655;SDS011;64252;51.094;13.714;2023-12-29T13:19:40;3.50;;;1.10;;
75655;SDS011;64252;51.094;13.714;2023-12-29T13:22:07;4.20;;;0.93;;
75655;SDS011;64252;51.094;13.714;2023-12-29T13:24:34;3.78;;;1.02;;
75655;SDS011;64252;51.094;13.714;2023-12-29T13:27:02;2.40;;;0.80;;
75655;SDS011;64252;51.094;13.714;2023-12-29T13:29:30;5.18;;;1.10;;
75655;SDS011;64252;51.094;13.714;2023-12-29T13:32:00;3.20;;;1.00;;
75655;SDS011;64252;51.094;13.714;2023-12-29T13:42:32;2.60;;;0.80;;
75655;SDS011;64252;51.094;13.714;2023-12-29T13:44:59;3.67;;;0.80;;
75655;SDS011;64252;51.094;13.714;2023-12-29T13:47:29;3.72;;;0.88;;
75655;SDS011;64252;51.094;13.714;2023-12-29T13:49:55;2.80;;;0.70;;
75655;SDS011;64252;51.094;13.714;2023-12-29T13:52:21;3.17;;;0.70;;
75655;SDS011;64252;51.094;13.714;2023-12-29T13:54:47;2.90;;;0.80;;
75655;SDS011;64252;51.094;13.714;2023-12-29T13:57:13;2.10;;;0.70;;
75655;SDS011;64252;51.094;13.714;2023-12-29T13:59:39;3.30;;;1.00;;
75655;SDS011;64252;51.094;13.714;2023-12-29T14:02:19;2.08;;;0.63;;
75655;SDS011;64252;51.094;13.714;2023-12-29T14:07:14;3.40;;;0.90;;
75655;SDS011;64252;51.094;13.714;2023-12-29T14:09:54;1.95;;;0.73;;
75655;SDS011;64252;51.094;13.714;2023-12-29T14:12:23;2.83;;;0.80;;
75655;SDS011;64252;51.094;13.714;2023-12-29T14:14:51;4.00;;;1.00;;
75655;SDS011;64252;51.094;13.714;2023-12-29T14:17:20;3.72;;;0.80;;
75655;SDS011;64252;51.094;13.714;2023-12-29T14:19:47;3.05;;;1.00;;
75655;SDS011;64252;51.094;13.714;2023-12-29T14:22:24;4.00;;;1.42;;
75655;SDS011;64252;51.094;13.714;2023-12-29T14:24:59;3.47;;;1.20;;
75655;SDS011;64252;51.094;13.714;2023-12-29T14:27:33;2.92;;;1.02;;
75655;SDS011;64252;51.094;13.714;2023-12-29T14:29:58;5.63;;;1.75;;
75655;SDS011;64252;51.094;13.714;2023-12-29T14:32:24;4.10;;;1.40;;
75655;SDS011;64252;51.094;13.714;2023-12-29T14:34:50;3.88;;;1.45;;
75655;SDS011;64252;51.094;13.714;2023-12-29T14:37:21;3.17;;;0.80;;
75655;SDS011;64252;51.094;13.714;2023-12-29T14:39:48;3.17;;;1.10;;
75655;SDS011;64252;51.094;13.714;2023-12-29T14:42:16;3.90;;;1.23;;
75655;SDS011;64252;51.094;13.714;2023-12-29T14:44:45;1.85;;;0.60;;
75655;SDS011;64252;51.094;13.714;2023-12-29T14:47:12;3.67;;;1.48;;
75655;SDS011;64252;51.094;13.714;2023-12-29T14:49:39;5.45;;;1.23;;
75655;SDS011;64252;51.094;13.714;2023-12-29T14:52:06;2.72;;;0.90;;
75655;SDS011;64252;51.094;13.714;2023-12-29T14:54:31;6.07;;;2.08;;
75655;SDS011;64252;51.094;13.714;2023-12-29T14:56:58;4.70;;;1.73;;
75655;SDS011;64252;51.094;13.714;2023-12-29T14:59:23;4.95;;;1.63;;
75655;SDS011;64252;51.094;13.714;2023-12-29T15:01:49;6.20;;;2.63;;
75655;SDS011;64252;51.094;13.714;2023-12-29T15:04:15;5.15;;;2.20;;
75655;SDS011;64252;51.094;13.714;2023-12-29T15:06:41;13.38;;;5.45;;
75655;SDS011;64252;51.094;13.714;2023-12-29T15:09:08;5.43;;;2.35;;
75655;SDS011;64252;51.094;13.714;2023-12-29T15:11:36;4.88;;;1.88;;
75655;SDS011;64252;51.094;13.714;2023-12-29T15:14:02;4.97;;;0.98;;